createdAt,value
2023-02-06T00:01:25.934Z,3.87
2023-02-06T00:03:54.092Z,4.20
2023-02-06T00:06:22.240Z,3.83
2023-02-06T00:08:50.406Z,4.67
2023-02-06T00:11:21.101Z,4.27
2023-02-06T00:13:49.589Z,4.20
2023-02-06T00:16:18.632Z,5.30
2023-02-06T00:18:47.361Z,4.43
2023-02-06T00:21:15.968Z,5.30
2023-02-06T00:23:44.101Z,5.03
2023-02-06T00:26:12.253Z,5.00
2023-02-06T00:28:41.767Z,4.37
2023-02-06T00:31:10.528Z,4.70
2023-02-06T00:33:38.748Z,3.97
2023-02-06T00:36:07.462Z,5.87
2023-02-06T00:38:35.874Z,4.07
2023-02-06T00:41:04.025Z,4.23
2023-02-06T00:43:32.145Z,4.33
2023-02-06T00:46:01.663Z,6.20
2023-02-06T00:48:29.982Z,4.63
2023-02-06T00:50:58.124Z,6.20
2023-02-06T00:53:26.269Z,5.70
2023-02-06T00:55:54.422Z,5.77
2023-02-06T00:58:22.573Z,3.87
2023-02-06T01:00:50.715Z,3.90
2023-02-06T01:03:20.203Z,5.27
2023-02-06T01:05:48.336Z,4.57
2023-02-06T01:08:16.621Z,4.10
2023-02-06T01:10:45.184Z,5.00
2023-02-06T01:13:13.779Z,4.60
2023-02-06T01:15:41.963Z,4.93
2023-02-06T01:18:10.122Z,4.43
2023-02-06T01:20:40.969Z,4.23
2023-02-06T01:23:09.169Z,4.00
2023-02-06T01:25:38.184Z,4.27
2023-02-06T01:28:06.541Z,4.80
2023-02-06T01:30:34.775Z,3.63
2023-02-06T01:33:02.910Z,4.53
2023-02-06T01:35:31.058Z,5.27
2023-02-06T01:38:00.596Z,3.87
2023-02-06T01:40:28.755Z,4.83
2023-02-06T01:42:56.921Z,3.33
2023-02-06T01:45:42.253Z,3.53
2023-02-06T01:48:11.624Z,3.73
2023-02-06T01:50:41.108Z,3.90
2023-02-06T01:53:10.682Z,4.87
2023-02-06T01:55:40.481Z,4.30
2023-02-06T01:58:09.341Z,4.37
2023-02-06T02:00:37.706Z,4.67
2023-02-06T02:03:06.272Z,4.93
2023-02-06T02:05:35.484Z,4.60
2023-02-06T02:08:07.696Z,4.83
2023-02-06T02:10:37.202Z,4.10
2023-02-06T02:13:05.398Z,4.73
2023-02-06T02:15:39.876Z,4.33
2023-02-06T02:18:14.349Z,4.23
2023-02-06T02:20:54.804Z,5.50
2023-02-06T02:23:27.709Z,4.00
2023-02-06T02:26:10.707Z,4.73
2023-02-06T02:28:52.036Z,4.47
2023-02-06T02:31:33.680Z,5.13
2023-02-06T02:34:16.718Z,5.10
2023-02-06T02:36:47.890Z,6.07
2023-02-06T02:39:19.508Z,4.97
2023-02-06T02:41:50.758Z,5.50
2023-02-06T02:44:23.025Z,6.73
2023-02-06T02:46:53.856Z,10.33
2023-02-06T02:49:24.317Z,8.20
2023-02-06T02:51:53.801Z,11.03
2023-02-06T02:54:22.003Z,11.93
2023-02-06T02:56:50.219Z,11.23
2023-02-06T02:59:23.698Z,12.47
2023-02-06T03:01:56.144Z,10.47
2023-02-06T03:04:26.384Z,12.23
2023-02-06T03:07:09.432Z,10.60
2023-02-06T03:09:46.010Z,11.10
2023-02-06T03:12:17.999Z,12.27
2023-02-06T03:14:47.909Z,10.30
2023-02-06T03:17:18.402Z,11.73
2023-02-06T03:19:49.863Z,12.57
2023-02-06T03:22:18.910Z,12.47
2023-02-06T03:24:48.903Z,11.23
2023-02-06T03:27:17.564Z,11.00
2023-02-06T03:29:46.616Z,11.07
2023-02-06T03:32:17.762Z,12.67
2023-02-06T03:34:47.784Z,12.27
2023-02-06T03:37:16.059Z,12.60
2023-02-06T03:39:44.727Z,12.70
2023-02-06T03:42:15.541Z,13.43
2023-02-06T03:44:45.820Z,14.20
2023-02-06T03:47:15.696Z,14.47
2023-02-06T03:49:45.570Z,13.27
2023-02-06T03:52:15.017Z,13.13
2023-02-06T03:54:44.605Z,12.93
2023-02-06T03:57:15.047Z,12.60
2023-02-06T03:59:43.232Z,12.70
2023-02-06T04:02:11.421Z,12.43
2023-02-06T04:04:40.566Z,12.10
2023-02-06T04:07:20.416Z,12.27
2023-02-06T04:09:48.536Z,13.93
2023-02-06T04:12:18.051Z,11.73
2023-02-06T04:14:46.320Z,11.40
2023-02-06T04:17:17.023Z,11.40
2023-02-06T04:19:52.010Z,12.07
2023-02-06T04:22:20.145Z,12.83
2023-02-06T04:24:48.291Z,12.47
2023-02-06T04:27:18.158Z,12.33
2023-02-06T04:29:46.279Z,11.67
2023-02-06T04:32:14.500Z,11.77
2023-02-06T04:34:42.807Z,12.17
2023-02-06T04:37:12.523Z,11.13
2023-02-06T04:39:40.971Z,11.57
2023-02-06T04:42:09.549Z,12.80
2023-02-06T04:44:39.178Z,12.20
2023-02-06T04:47:07.700Z,11.20
2023-02-06T04:49:35.857Z,10.83
2023-02-06T04:52:04.010Z,11.47
2023-02-06T04:54:32.817Z,11.23
2023-02-06T04:57:01.080Z,11.93
2023-02-06T04:59:29.296Z,12.37
2023-02-06T05:01:58.785Z,11.83
2023-02-06T05:04:27.029Z,10.17
2023-02-06T05:06:55.187Z,11.57
2023-02-06T05:09:23.325Z,10.93
2023-02-06T05:11:51.540Z,11.10
2023-02-06T05:14:19.711Z,10.67
2023-02-06T05:16:48.138Z,10.30
2023-02-06T05:19:17.641Z,12.27
2023-02-06T05:21:45.862Z,12.10
2023-02-06T05:24:14.201Z,11.87
2023-02-06T05:26:42.349Z,12.33
2023-02-06T05:29:10.500Z,11.00
2023-02-06T05:31:38.759Z,11.00
2023-02-06T05:34:07.074Z,10.30
2023-02-06T05:36:36.614Z,9.77
2023-02-06T05:39:04.996Z,9.93
2023-02-06T05:41:33.144Z,10.50
2023-02-06T05:44:01.302Z,11.70
2023-02-06T05:46:29.516Z,11.67
2023-02-06T05:48:57.707Z,12.53
2023-02-06T05:51:25.841Z,12.53
2023-02-06T05:53:55.361Z,12.27
2023-02-06T05:56:23.541Z,10.83
2023-02-06T05:58:51.804Z,10.37
2023-02-06T06:01:20.194Z,10.03
2023-02-06T06:03:48.412Z,10.47
2023-02-06T06:06:16.587Z,13.63
2023-02-06T06:08:44.718Z,12.47
2023-02-06T06:11:14.265Z,10.73
2023-02-06T06:13:42.408Z,10.60
2023-02-06T06:16:10.585Z,9.47
2023-02-06T06:18:38.763Z,10.53
2023-02-06T06:21:07.120Z,10.63
2023-02-06T06:23:35.286Z,10.00
2023-02-06T06:26:03.490Z,10.67
2023-02-06T06:28:34.930Z,9.23
2023-02-06T06:31:03.471Z,9.47
2023-02-06T06:33:31.703Z,10.43
2023-02-06T06:35:59.828Z,9.90
2023-02-06T06:38:27.958Z,9.77
2023-02-06T06:40:56.098Z,11.07
2023-02-06T06:43:24.274Z,11.23
2023-02-06T06:45:53.849Z,11.40
2023-02-06T06:48:22.241Z,11.47
2023-02-06T06:50:50.484Z,11.07
2023-02-06T06:53:18.719Z,13.13
2023-02-06T06:55:46.880Z,11.33
2023-02-06T06:58:15.029Z,10.77
2023-02-06T07:00:43.231Z,10.80
2023-02-06T07:03:12.973Z,10.87
2023-02-06T07:05:41.363Z,10.70
2023-02-06T07:08:09.593Z,10.90
2023-02-06T07:10:37.714Z,12.33
2023-02-06T07:13:05.851Z,13.80
2023-02-06T07:15:34.260Z,13.03
2023-02-06T07:18:02.503Z,14.20
2023-02-06T07:20:32.004Z,15.00
2023-02-06T07:23:01.828Z,14.67
2023-02-06T07:25:30.069Z,12.73
2023-02-06T07:27:58.327Z,14.13
2023-02-06T07:30:26.777Z,12.70
2023-02-06T07:32:54.983Z,13.07
2023-02-06T07:35:23.138Z,13.20
2023-02-06T07:37:54.127Z,13.17
2023-02-06T07:40:22.288Z,12.50
2023-02-06T07:42:50.470Z,13.33
2023-02-06T07:45:18.817Z,12.87
2023-02-06T07:47:46.944Z,11.10
2023-02-06T07:50:15.134Z,10.77
2023-02-06T07:52:43.282Z,11.37
2023-02-06T07:55:12.815Z,10.63
2023-02-06T07:57:40.961Z,11.90
2023-02-06T08:00:09.969Z,10.90
2023-02-06T08:02:38.100Z,9.47
2023-02-06T08:05:06.422Z,9.73
2023-02-06T08:07:34.570Z,10.70
2023-02-06T08:10:02.707Z,11.43
2023-02-06T08:12:32.641Z,11.13
2023-02-06T08:15:00.799Z,12.13
2023-02-06T08:17:28.938Z,13.07
2023-02-06T08:19:57.093Z,13.83
2023-02-06T08:22:25.241Z,12.07
2023-02-06T08:24:53.444Z,12.13
2023-02-06T08:27:21.567Z,13.33
2023-02-06T08:29:51.700Z,12.67
2023-02-06T08:32:19.858Z,12.83
2023-02-06T08:34:48.017Z,12.20
2023-02-06T08:37:16.161Z,11.20
2023-02-06T08:39:44.302Z,11.10
2023-02-06T08:42:12.567Z,11.23
2023-02-06T08:44:40.744Z,11.53
2023-02-06T08:47:10.798Z,11.50
2023-02-06T08:49:39.160Z,11.30
2023-02-06T08:52:07.302Z,11.53
2023-02-06T08:54:37.730Z,11.43
2023-02-06T08:57:07.469Z,11.87
2023-02-06T08:59:35.817Z,11.30
2023-02-06T09:02:03.977Z,12.17
2023-02-06T09:04:35.236Z,11.03
2023-02-06T09:07:03.370Z,10.57
2023-02-06T09:09:31.515Z,9.60
2023-02-06T09:12:03.500Z,10.93
2023-02-06T09:14:32.054Z,12.17
2023-02-06T09:17:00.265Z,12.43
2023-02-06T09:19:28.445Z,10.77
2023-02-06T09:21:58.141Z,11.30
2023-02-06T09:24:27.209Z,11.47
2023-02-06T09:26:59.776Z,10.50
2023-02-06T09:29:31.341Z,11.53
2023-02-06T09:31:59.533Z,11.13
2023-02-06T09:34:28.140Z,11.43
2023-02-06T09:36:57.834Z,9.50
2023-02-06T09:39:26.353Z,10.87
2023-02-06T09:41:55.422Z,11.03
2023-02-06T09:44:26.980Z,11.33
2023-02-06T09:46:56.776Z,10.03
2023-02-06T09:49:27.654Z,9.50
2023-02-06T09:52:16.884Z,10.17
2023-02-06T09:54:52.589Z,9.53
2023-02-06T09:57:23.195Z,10.03
2023-02-06T09:59:53.357Z,10.80
2023-02-06T10:02:26.342Z,11.17
2023-02-06T10:04:57.796Z,10.83
2023-02-06T10:07:32.770Z,11.80
2023-02-06T10:10:04.476Z,10.53
2023-02-06T10:12:37.353Z,11.13
2023-02-06T10:15:08.443Z,11.00
2023-02-06T10:17:37.551Z,12.33
2023-02-06T10:20:07.549Z,11.90
2023-02-06T10:22:49.273Z,10.37
2023-02-06T10:25:22.562Z,9.47
2023-02-06T10:27:53.331Z,9.57
2023-02-06T10:30:24.143Z,9.73
2023-02-06T10:32:55.999Z,9.83
2023-02-06T10:35:29.691Z,10.07
2023-02-06T10:38:15.917Z,10.40
2023-02-06T10:40:49.030Z,8.80
2023-02-06T10:43:20.701Z,9.00
2023-02-06T10:45:52.518Z,8.63
2023-02-06T10:48:29.257Z,9.30
2023-02-06T10:51:00.107Z,8.90
2023-02-06T10:53:30.333Z,7.90
2023-02-06T10:56:01.489Z,8.60
2023-02-06T10:58:32.282Z,9.23
2023-02-06T11:01:01.205Z,8.53
2023-02-06T11:03:31.822Z,8.67
2023-02-06T11:06:00.323Z,8.47
2023-02-06T11:08:29.909Z,9.07
2023-02-06T11:10:59.704Z,7.47
2023-02-06T11:13:28.919Z,8.87
2023-02-06T11:16:03.066Z,8.10
2023-02-06T11:18:32.537Z,7.77
2023-02-06T11:21:00.974Z,7.10
2023-02-06T11:23:29.691Z,9.10
2023-02-06T11:26:07.293Z,9.03
2023-02-06T11:28:36.397Z,8.67
2023-02-06T11:31:05.526Z,9.03
2023-02-06T11:33:38.436Z,9.77
2023-02-06T11:36:07.470Z,9.80
2023-02-06T11:38:35.908Z,9.27
2023-02-06T11:41:05.567Z,8.47
2023-02-06T11:43:48.415Z,8.50
2023-02-06T11:46:17.548Z,9.43
2023-02-06T11:48:46.626Z,8.33
2023-02-06T11:51:16.753Z,8.27
2023-02-06T11:53:58.787Z,9.00
2023-02-06T11:56:27.211Z,8.33
2023-02-06T11:59:07.723Z,7.67
2023-02-06T12:01:44.713Z,7.50
2023-02-06T12:04:23.504Z,8.33
2023-02-06T12:06:55.039Z,9.40
2023-02-06T12:09:23.337Z,9.97
2023-02-06T12:11:53.725Z,11.17
2023-02-06T12:14:24.716Z,12.17
2023-02-06T12:16:53.676Z,12.03
2023-02-06T12:19:24.113Z,11.43
2023-02-06T12:21:53.641Z,10.23
2023-02-06T12:24:26.132Z,10.37
2023-02-06T12:26:55.413Z,10.43
2023-02-06T12:29:26.763Z,11.50
2023-02-06T12:31:58.911Z,11.50
2023-02-06T12:34:31.546Z,10.00
2023-02-06T12:37:13.854Z,11.47
2023-02-06T12:39:42.586Z,10.10
2023-02-06T12:42:19.079Z,10.20
2023-02-06T12:44:51.625Z,9.53
2023-02-06T12:47:24.591Z,10.30
2023-02-06T12:49:57.128Z,8.83
2023-02-06T12:52:30.815Z,8.67
2023-02-06T12:55:05.150Z,9.43
2023-02-06T12:57:34.469Z,10.00
2023-02-06T13:00:20.524Z,9.20
2023-02-06T13:03:09.484Z,9.60
2023-02-06T13:05:40.590Z,9.03
2023-02-06T13:08:11.068Z,9.83
2023-02-06T13:10:39.463Z,10.40
2023-02-06T13:13:07.947Z,9.90
2023-02-06T13:15:39.371Z,9.37
2023-02-06T13:18:22.567Z,8.57
2023-02-06T13:21:17.146Z,10.83
2023-02-06T13:23:52.196Z,10.53
2023-02-06T13:26:20.635Z,10.73
2023-02-06T13:29:09.557Z,10.20
2023-02-06T13:31:38.481Z,9.60
2023-02-06T13:34:15.063Z,10.13
2023-02-06T13:36:49.181Z,9.80
2023-02-06T13:39:24.756Z,10.80
2023-02-06T13:41:52.924Z,11.77
2023-02-06T13:44:23.720Z,9.73
2023-02-06T13:47:12.810Z,10.43
2023-02-06T13:50:07.071Z,10.43
2023-02-06T13:52:40.754Z,10.43
2023-02-06T13:55:16.319Z,8.27
2023-02-06T13:58:02.363Z,7.83
2023-02-06T14:00:32.753Z,8.53
2023-02-06T14:03:06.410Z,9.63
2023-02-06T14:05:41.669Z,9.20
2023-02-06T14:08:16.304Z,8.47
2023-02-06T14:11:12.572Z,7.93
2023-02-06T14:13:50.109Z,8.73
2023-02-06T14:16:23.225Z,9.17
2023-02-06T14:18:54.763Z,9.77
2023-02-06T14:21:29.106Z,9.00
2023-02-06T14:24:06.040Z,8.33
2023-02-06T14:26:39.776Z,8.83
2023-02-06T14:29:15.721Z,8.00
2023-02-06T14:31:49.464Z,9.43
2023-02-06T14:34:26.647Z,8.40
2023-02-06T14:37:05.594Z,8.60
2023-02-06T14:39:48.429Z,9.27
2023-02-06T14:42:18.849Z,7.93
2023-02-06T14:44:50.501Z,8.10
2023-02-06T14:47:20.517Z,8.57
2023-02-06T14:49:49.244Z,7.93
2023-02-06T14:52:18.964Z,8.97
2023-02-06T14:54:48.478Z,8.17
2023-02-06T14:57:18.833Z,7.93
2023-02-06T14:59:54.233Z,7.33
2023-02-06T15:02:27.811Z,8.87
2023-02-06T15:04:55.993Z,7.23
2023-02-06T15:07:25.578Z,8.13
2023-02-06T15:09:58.630Z,6.00
2023-02-06T15:12:28.941Z,5.97
2023-02-06T15:14:57.932Z,7.00
2023-02-06T15:17:27.451Z,6.83
2023-02-06T15:19:55.711Z,6.40
2023-02-06T15:22:25.452Z,6.70
2023-02-06T15:25:04.697Z,6.90
2023-02-06T15:27:33.476Z,6.80
2023-02-06T15:30:02.343Z,6.93
2023-02-06T15:32:32.149Z,7.90
2023-02-06T15:35:01.314Z,7.90
2023-02-06T15:37:30.681Z,8.00
2023-02-06T15:40:03.373Z,7.57
2023-02-06T15:42:32.136Z,8.80
2023-02-06T15:45:00.521Z,8.30
2023-02-06T15:47:29.049Z,8.07
2023-02-06T15:50:00.277Z,9.13
2023-02-06T15:52:36.255Z,8.73
2023-02-06T15:55:06.019Z,8.70
2023-02-06T15:57:35.648Z,8.60
2023-02-06T16:00:09.011Z,8.93
2023-02-06T16:02:39.012Z,9.00
2023-02-06T16:05:08.215Z,8.80
2023-02-06T16:07:37.170Z,9.67
2023-02-06T16:10:15.531Z,10.57
2023-02-06T16:12:44.938Z,10.87
2023-02-06T16:15:26.078Z,9.87
2023-02-06T16:17:54.423Z,10.00
2023-02-06T16:20:33.201Z,8.93
2023-02-06T16:23:19.801Z,10.17
2023-02-06T16:25:50.230Z,11.10
2023-02-06T16:28:22.929Z,9.67
2023-02-06T16:30:55.919Z,11.07
2023-02-06T16:33:30.949Z,9.90
2023-02-06T16:35:59.104Z,10.47
2023-02-06T16:38:27.299Z,11.70
2023-02-06T16:40:57.017Z,10.77
2023-02-06T16:43:25.264Z,10.83
2023-02-06T16:45:53.661Z,9.87
2023-02-06T16:48:21.846Z,10.60
2023-02-06T16:50:50.196Z,11.23
2023-02-06T16:53:20.723Z,11.47
2023-02-06T16:55:49.257Z,10.67
2023-02-06T16:58:21.237Z,12.00
2023-02-06T17:00:49.409Z,10.90
2023-02-06T17:03:17.765Z,12.07
2023-02-06T17:05:46.653Z,13.03
2023-02-06T17:08:16.749Z,12.27
2023-02-06T17:10:45.301Z,13.23
2023-02-06T17:13:15.434Z,13.00
2023-02-06T17:15:46.958Z,13.23
2023-02-06T17:18:16.045Z,13.97
2023-02-06T17:20:45.174Z,14.57
2023-02-06T17:23:14.221Z,14.33
2023-02-06T17:25:43.216Z,15.17
2023-02-06T17:28:12.895Z,14.37
2023-02-06T17:30:41.521Z,15.10
2023-02-06T17:33:11.113Z,15.07
2023-02-06T17:35:39.757Z,13.37
2023-02-06T17:38:08.747Z,12.83
2023-02-06T17:40:37.868Z,13.53
2023-02-06T17:43:07.055Z,12.83
2023-02-06T17:45:35.739Z,11.87
2023-02-06T17:48:04.113Z,11.13
2023-02-06T17:50:34.132Z,11.60
2023-02-06T17:53:03.618Z,12.63
2023-02-06T17:55:31.794Z,12.30
2023-02-06T17:58:00.581Z,13.63
2023-02-06T18:00:29.064Z,13.47
2023-02-06T18:02:57.956Z,13.47
2023-02-06T18:05:26.317Z,13.90
2023-02-06T18:07:55.856Z,13.43
2023-02-06T18:10:24.888Z,14.93
2023-02-06T18:12:53.066Z,15.30
2023-02-06T18:15:21.359Z,14.83
2023-02-06T18:17:49.569Z,14.70
2023-02-06T18:20:17.894Z,15.23
2023-02-06T18:22:47.204Z,15.90
2023-02-06T18:25:17.418Z,15.47
2023-02-06T18:27:46.644Z,16.27
2023-02-06T18:30:16.998Z,14.57
2023-02-06T18:32:45.956Z,15.10
2023-02-06T18:35:14.905Z,16.10
2023-02-06T18:37:43.215Z,16.17
2023-02-06T18:40:11.858Z,16.50
2023-02-06T18:42:53.882Z,16.40
2023-02-06T18:45:22.912Z,16.83
2023-02-06T18:47:52.066Z,16.33
2023-02-06T18:50:22.064Z,14.90
2023-02-06T18:52:50.471Z,16.40
2023-02-06T18:55:18.760Z,16.70
2023-02-06T18:57:48.338Z,15.23
2023-02-06T19:00:17.550Z,15.10
2023-02-06T19:02:45.827Z,15.27
2023-02-06T19:05:14.077Z,17.03
2023-02-06T19:07:42.309Z,17.10
2023-02-06T19:10:12.840Z,18.27
2023-02-06T19:12:41.083Z,20.40
2023-02-06T19:15:11.490Z,18.23
2023-02-06T19:17:39.980Z,18.00
2023-02-06T19:20:12.120Z,21.73
2023-02-06T19:22:40.572Z,19.33
2023-02-06T19:25:12.626Z,20.13
2023-02-06T19:27:42.270Z,19.97
2023-02-06T19:30:12.956Z,19.23
2023-02-06T19:32:41.375Z,18.73
2023-02-06T19:35:11.806Z,19.50
2023-02-06T19:37:40.031Z,20.43
2023-02-06T19:40:08.700Z,19.00
2023-02-06T19:42:36.930Z,18.73
2023-02-06T19:45:06.869Z,19.07
2023-02-06T19:47:37.063Z,20.37
2023-02-06T19:50:05.434Z,20.00
2023-02-06T19:52:35.139Z,19.87
2023-02-06T19:55:03.428Z,18.93
2023-02-06T19:57:31.638Z,19.73
2023-02-06T19:59:59.798Z,19.27
2023-02-06T20:02:28.050Z,18.33
2023-02-06T20:04:57.631Z,20.07
2023-02-06T20:07:25.806Z,18.87
2023-02-06T20:09:55.762Z,18.27
2023-02-06T20:12:24.013Z,19.30
2023-02-06T20:14:52.260Z,19.73
2023-02-06T20:17:20.457Z,17.03
2023-02-06T20:19:48.835Z,18.57
2023-02-06T20:22:18.347Z,18.90
2023-02-06T20:24:46.537Z,19.13
2023-02-06T20:27:15.157Z,17.27
2023-02-06T20:29:44.445Z,18.07
2023-02-06T20:32:15.400Z,17.80
2023-02-06T20:34:43.936Z,19.73
2023-02-06T20:37:12.146Z,17.37
2023-02-06T20:39:41.659Z,18.30
2023-02-06T20:42:09.913Z,19.13
2023-02-06T20:44:38.070Z,18.30
2023-02-06T20:47:06.252Z,18.40
2023-02-06T20:49:34.404Z,19.23
2023-02-06T20:52:03.158Z,19.60
2023-02-06T20:54:31.312Z,19.77
2023-02-06T20:57:01.131Z,21.77
2023-02-06T20:59:29.472Z,21.13
2023-02-06T21:01:57.695Z,20.40
2023-02-06T21:04:25.936Z,20.80
2023-02-06T21:06:55.071Z,21.10
2023-02-06T21:09:23.251Z,21.10
2023-02-06T21:11:51.561Z,21.10
2023-02-06T21:14:21.511Z,21.20
2023-02-06T21:16:50.148Z,21.27
2023-02-06T21:19:19.362Z,20.20
2023-02-06T21:21:47.710Z,20.93
2023-02-06T21:24:16.007Z,19.27
2023-02-06T21:26:44.662Z,19.53
2023-02-06T21:29:14.044Z,20.07
2023-02-06T21:31:43.802Z,18.43
2023-02-06T21:34:13.973Z,19.07
2023-02-06T21:36:42.734Z,18.87
2023-02-06T21:39:11.057Z,18.67
2023-02-06T21:41:39.268Z,18.70
2023-02-06T21:44:07.487Z,19.13
2023-02-06T21:46:35.775Z,18.77
2023-02-06T21:49:06.279Z,18.10
2023-02-06T21:51:34.451Z,19.20
2023-02-06T21:54:02.631Z,17.70
2023-02-06T21:56:30.950Z,17.90
2023-02-06T21:58:59.264Z,18.27
2023-02-06T22:01:28.751Z,17.20
2023-02-06T22:03:58.021Z,18.33
2023-02-06T22:06:28.488Z,17.93
2023-02-06T22:08:57.385Z,17.90
2023-02-06T22:11:26.891Z,16.77
2023-02-06T22:13:58.452Z,17.53
2023-02-06T22:16:26.728Z,17.07
2023-02-06T22:18:55.153Z,17.87
2023-02-06T22:21:23.998Z,16.13
2023-02-06T22:23:54.034Z,16.43
2023-02-06T22:26:22.610Z,17.17
2023-02-06T22:28:50.854Z,17.50
2023-02-06T22:31:20.193Z,16.37
2023-02-06T22:33:48.412Z,15.63
2023-02-06T22:36:17.695Z,17.00
2023-02-06T22:38:46.712Z,16.33
2023-02-06T22:41:17.058Z,16.17
2023-02-06T22:43:45.876Z,15.67
2023-02-06T22:46:19.015Z,17.47
2023-02-06T22:48:47.203Z,16.77
2023-02-06T22:51:15.594Z,16.77
2023-02-06T22:53:43.829Z,15.00
2023-02-06T22:56:30.762Z,14.13
2023-02-06T22:59:01.253Z,13.80
2023-02-06T23:01:31.808Z,13.23
2023-02-06T23:04:00.118Z,13.30
2023-02-06T23:06:29.246Z,11.40
2023-02-06T23:08:57.835Z,11.77
2023-02-06T23:11:26.331Z,12.03
2023-02-06T23:13:55.047Z,10.97
2023-02-06T23:16:24.875Z,11.67
2023-02-06T23:18:53.089Z,10.70
2023-02-06T23:21:22.268Z,10.50
2023-02-06T23:23:50.629Z,10.43
2023-02-06T23:26:19.895Z,10.77
2023-02-06T23:28:48.461Z,10.23
2023-02-06T23:31:16.849Z,9.20
2023-02-06T23:33:46.422Z,10.37
2023-02-06T23:36:16.237Z,10.83
2023-02-06T23:38:44.922Z,10.77
2023-02-06T23:41:14.147Z,10.77
2023-02-06T23:43:42.676Z,10.53
2023-02-06T23:46:12.498Z,11.00
2023-02-06T23:48:41.153Z,11.20
2023-02-06T23:51:10.679Z,10.93
2023-02-06T23:53:38.855Z,10.43
2023-02-06T23:56:10.968Z,10.50
2023-02-06T23:58:39.116Z,11.37
